首页
METAR-TAF:

METAR-TAF

机场 :

Buochs, 瑞士

纬度: 46-58-28N, 经度: 8-23-49E, 海拔: 449米

当前天气观测

该预报发布于33分钟前的19:50 UTC
风速4节,风向西转西南,在南转西南西之间变化
温度 5°C
湿度 75%
气压 1018 hPa
能见度10公里或以上
散云层高于4800英尺
多云层高于5500英尺

METAR: LSZC 291950Z AUTO 24004KT 210V270 9999 SCT048 BKN055 05/01 Q1018

时间: 21:23 (20:23 UTC)

预报

该预报发布于5小时和58分钟前的14:25 UTC
预报有效从29日的 15点(UTC)到 29日的 24点(UTC)
风速4节,风向南转南东
能见度10公里或以上
少量云层高于500英尺
散云层高于5000英尺
多云层高于6500英尺
短暂存在
从 29日的 15点(UTC)到 29日的 21点(UTC)
风速12节,风向西转西南
多云层高于1400英尺
阵雨

TAF: LSZC 291425Z 2915/2924 15004KT 9999 FEW005 SCT050 BKN065 TEMPO 2915/2921 25012KT SHRA BKN014

超过4000个机场的气象观测和天气预报(METAR&TAF报告)。

可查询的气象台以黄色和红色小点在地图上表示。

将鼠标移到小点上方,可查看气象台名称。

然后点击查看天气观测和预报。

如需切换地图:点击带黑十字的绿色按钮放大地图;点击带横线的绿色按钮缩小地图;或者点击绿色箭头查看邻近地区的地图。


METAR-TAF: